Time;durP1;ratioP1;P1;durP2;ratioP2;P2;SDS_P1;SDS_P2;PMS_P1;PMS_P2;Temp;Humidity;BMP_temperature;BMP_pressure;BME280_temperature;BME280_humidity;BME280_pressure;Samples;Min_cycle;Max_cycle;Signal;HPM_P1;HPM_P2
2021/10/28 00:13:43;;;;;;;4.77;3.97;;;12.40;99.90;;;;;;5027705;28;20187;-74
2021/10/28 00:16:18;;;;;;;3.83;3.50;;;12.40;99.90;;;;;;5027736;28;20209;-75
2021/10/28 00:18:48;;;;;;;4.50;3.70;;;12.30;99.90;;;;;;5027500;28;20246;-74
2021/10/28 00:21:15;;;;;;;4.57;3.90;;;12.30;99.90;;;;;;5027789;28;20241;-74
2021/10/28 00:23:45;;;;;;;4.30;3.60;;;12.30;99.90;;;;;;5027744;28;20240;-75
2021/10/28 00:26:13;;;;;;;4.30;4.00;;;12.30;99.90;;;;;;5028077;28;20209;-74
2021/10/28 00:28:40;;;;;;;4.23;3.83;;;12.30;99.90;;;;;;5027566;28;20753;-74
2021/10/28 00:31:08;;;;;;;3.63;3.43;;;12.20;99.90;;;;;;5028236;28;20200;-76
2021/10/28 00:33:36;;;;;;;4.00;3.70;;;12.20;99.90;;;;;;5027859;28;20309;-75
2021/10/28 00:36:05;;;;;;;4.53;3.60;;;12.20;99.90;;;;;;5028062;28;20220;-75
2021/10/28 00:38:33;;;;;;;3.57;3.10;;;12.10;99.90;;;;;;5031209;28;20274;-74
2021/10/28 00:41:00;;;;;;;4.43;3.73;;;12.20;99.90;;;;;;5031389;28;20747;-75
2021/10/28 00:43:27;;;;;;;3.90;3.60;;;12.10;99.90;;;;;;5031323;28;20304;-75
2021/10/28 00:45:54;;;;;;;3.83;3.53;;;12.10;99.90;;;;;;5031207;28;20247;-76
2021/10/28 00:48:21;;;;;;;3.80;3.50;;;12.10;99.90;;;;;;5030935;28;20205;-75
2021/10/28 00:50:51;;;;;;;3.57;3.37;;;12.00;99.90;;;;;;5031154;28;20627;-75
2021/10/28 00:53:19;;;;;;;3.70;3.47;;;12.10;99.90;;;;;;5030785;28;20766;-74
2021/10/28 00:55:46;;;;;;;3.93;3.60;;;12.00;99.90;;;;;;5030927;28;20225;-74
2021/10/28 00:58:18;;;;;;;3.63;3.40;;;12.00;99.90;;;;;;5030703;28;20201;-74
2021/10/28 01:00:44;;;;;;;4.50;3.50;;;12.00;99.90;;;;;;5030625;28;20331;-75
2021/10/28 01:03:11;;;;;;;3.97;3.63;;;11.90;99.90;;;;;;5030107;28;20235;-75
2021/10/28 01:05:38;;;;;;;5.33;3.93;;;11.90;99.90;;;;;;5030947;28;20232;-75
2021/10/28 01:08:06;;;;;;;4.00;3.70;;;11.90;99.90;;;;;;5030469;28;20208;-76
2021/10/28 01:10:34;;;;;;;3.80;3.60;;;11.90;99.90;;;;;;5029943;28;20205;-75
2021/10/28 01:13:00;;;;;;;3.93;3.63;;;11.80;99.90;;;;;;5029879;28;20232;-76
2021/10/28 01:15:27;;;;;;;3.83;3.50;;;11.90;99.90;;;;;;5030163;28;20580;-75
2021/10/28 01:17:54;;;;;;;4.00;3.60;;;11.80;99.90;;;;;;5030330;28;20259;-75
2021/10/28 01:20:22;;;;;;;3.73;3.53;;;11.80;99.90;;;;;;5030118;28;20213;-75
2021/10/28 01:22:49;;;;;;;3.70;3.50;;;11.80;99.90;;;;;;5030030;28;20326;-75
2021/10/28 01:25:15;;;;;;;3.90;3.50;;;11.80;99.90;;;;;;5030150;28;20219;-75
2021/10/28 01:27:42;;;;;;;3.90;3.60;;;11.80;99.90;;;;;;5030188;28;20209;-75
2021/10/28 01:30:10;;;;;;;4.03;3.60;;;11.70;99.90;;;;;;5029904;28;20270;-75
2021/10/28 01:32:36;;;;;;;4.00;3.80;;;11.80;99.90;;;;;;5030088;28;20235;-75
2021/10/28 01:35:03;;;;;;;4.10;3.80;;;11.70;99.90;;;;;;5029911;28;20671;-75
2021/10/28 01:37:31;;;;;;;3.97;3.67;;;11.70;99.90;;;;;;5030470;28;20263;-75
2021/10/28 01:39:58;;;;;;;4.50;4.10;;;11.70;99.90;;;;;;5030574;28;20560;-76
2021/10/28 01:42:25;;;;;;;4.67;4.00;;;11.60;99.90;;;;;;5030271;28;20220;-74
2021/10/28 01:44:51;;;;;;;3.97;3.77;;;11.70;99.90;;;;;;5030482;28;20291;-76
2021/10/28 01:47:18;;;;;;;4.40;4.10;;;11.60;99.90;;;;;;5030193;28;20205;-75
2021/10/28 01:49:45;;;;;;;4.40;4.10;;;11.60;99.90;;;;;;5029855;28;20213;-75
2021/10/28 01:52:13;;;;;;;4.47;4.17;;;11.60;99.90;;;;;;5029840;28;20658;-75
2021/10/28 01:54:41;;;;;;;4.73;4.33;;;11.60;99.90;;;;;;5029860;28;20205;-75
2021/10/28 01:57:17;;;;;;;4.50;4.10;;;11.60;99.90;;;;;;5029762;28;20208;-75
2021/10/28 01:59:44;;;;;;;4.60;4.30;;;11.50;99.90;;;;;;5029725;28;20712;-75
2021/10/28 02:02:10;;;;;;;5.23;4.27;;;11.50;99.90;;;;;;5030130;28;20254;-75
2021/10/28 02:04:37;;;;;;;4.57;4.20;;;11.50;99.90;;;;;;5029602;28;20239;-74
2021/10/28 02:07:04;;;;;;;4.93;4.57;;;11.50;99.90;;;;;;5029684;28;20208;-74
2021/10/28 02:09:32;;;;;;;4.77;4.47;;;11.50;99.90;;;;;;5029420;28;20231;-74
2021/10/28 02:12:00;;;;;;;5.10;4.70;;;11.50;99.90;;;;;;5029856;28;20363;-74
2021/10/28 02:14:27;;;;;;;4.93;4.53;;;11.40;99.90;;;;;;5029487;28;20247;-73
2021/10/28 02:16:54;;;;;;;4.93;4.50;;;11.40;99.90;;;;;;5029368;28;20201;-73
2021/10/28 02:19:20;;;;;;;4.97;4.57;;;11.40;99.90;;;;;;5028962;28;20615;-74
2021/10/28 02:21:47;;;;;;;4.83;4.53;;;11.40;99.90;;;;;;5029390;28;20228;-73
2021/10/28 02:24:14;;;;;;;5.27;4.83;;;11.40;99.90;;;;;;5029350;28;20208;-75
2021/10/28 02:26:40;;;;;;;5.00;4.70;;;11.30;99.90;;;;;;5030261;28;20200;-75
2021/10/28 02:29:08;;;;;;;5.10;4.63;;;11.30;99.90;;;;;;5031783;28;20319;-75
2021/10/28 02:31:35;;;;;;;4.83;4.53;;;11.30;99.90;;;;;;5049610;28;20666;-74
2021/10/28 02:34:02;;;;;;;5.30;4.90;;;11.30;99.90;;;;;;5048811;28;20232;-74
2021/10/28 02:36:28;;;;;;;4.77;4.40;;;11.30;99.90;;;;;;5048678;28;20242;-74
2021/10/28 02:38:55;;;;;;;5.63;5.13;;;11.20;99.90;;;;;;5043067;28;20223;-74
2021/10/28 02:41:21;;;;;;;5.97;5.07;;;11.20;99.90;;;;;;5044987;28;20744;-74
2021/10/28 02:43:48;;;;;;;5.43;5.03;;;11.20;99.90;;;;;;5029610;28;20212;-74
2021/10/28 02:46:16;;;;;;;5.60;5.10;;;11.20;99.90;;;;;;5025841;28;20244;-74
2021/10/28 02:48:42;;;;;;;5.40;5.10;;;11.20;99.90;;;;;;5026107;28;20209;-75
2021/10/28 02:51:09;;;;;;;5.30;4.90;;;11.10;99.90;;;;;;5025625;28;20251;-74
2021/10/28 02:53:36;;;;;;;6.70;5.80;;;11.20;99.90;;;;;;5025850;28;20268;-74
2021/10/28 02:56:02;;;;;;;5.67;5.27;;;11.10;99.90;;;;;;5025556;28;20744;-74
2021/10/28 02:58:29;;;;;;;6.50;6.03;;;11.10;99.90;;;;;;5025529;28;20205;-74
2021/10/28 03:00:56;;;;;;;6.47;6.03;;;11.10;99.90;;;;;;5025354;28;20233;-74
2021/10/28 03:03:24;;;;;;;5.70;5.40;;;11.10;99.90;;;;;;5025254;28;20232;-74
2021/10/28 03:05:50;;;;;;;6.15;5.72;;;11.10;99.90;;;;;;5025656;28;20649;-74
2021/10/28 03:08:18;;;;;;;6.67;6.17;;;11.10;99.90;;;;;;5025972;28;20650;-74
2021/10/28 03:10:44;;;;;;;7.27;6.60;;;11.10;99.90;;;;;;5045070;28;20212;-75
2021/10/28 03:13:15;;;;;;;7.10;6.50;;;11.00;99.90;;;;;;5045409;28;20232;-75
2021/10/28 03:15:41;;;;;;;7.20;6.60;;;11.00;99.90;;;;;;5045332;28;20202;-74
2021/10/28 03:26:29;;;;;;;7.70;7.13;;;10.90;99.90;;;;;;5028278;28;20216;-74
2021/10/28 03:28:56;;;;;;;8.40;7.60;;;10.90;99.90;;;;;;5027731;28;20239;-74
2021/10/28 03:31:23;;;;;;;7.33;6.93;;;10.90;99.90;;;;;;5027944;28;20233;-74
2021/10/28 03:33:50;;;;;;;7.77;7.17;;;10.80;99.90;;;;;;5028359;28;20278;-74
2021/10/28 03:36:29;;;;;;;8.17;7.50;;;10.90;99.90;;;;;;5028151;28;20255;-74
2021/10/28 03:39:07;;;;;;;8.47;7.83;;;10.90;99.90;;;;;;5028180;28;20232;-74
2021/10/28 03:53:52;;;;;;;8.40;7.57;;;10.80;99.90;;;;;;4985975;28;21119;-74
2021/10/28 04:18:47;;;;;;;7.93;7.40;;;10.70;99.90;;;;;;5031412;28;20195;-74
2021/10/28 04:29:24;;;;;;;9.37;8.30;;;10.60;99.90;;;;;;5030955;28;20259;-74
2021/10/28 04:31:50;;;;;;;8.53;7.93;;;10.50;99.90;;;;;;5031618;28;20205;-74
2021/10/28 04:34:18;;;;;;;8.80;8.10;;;10.50;99.90;;;;;;5031157;28;20641;-74
2021/10/28 04:36:44;;;;;;;9.17;8.47;;;10.50;99.90;;;;;;5031130;28;20205;-74
2021/10/28 04:39:11;;;;;;;8.90;8.20;;;10.50;99.90;;;;;;5031262;28;20275;-74
2021/10/28 04:41:40;;;;;;;8.90;8.07;;;10.50;99.90;;;;;;5031258;28;20216;-74
2021/10/28 04:44:09;;;;;;;9.10;8.37;;;10.40;99.90;;;;;;5031204;28;20255;-74
2021/10/28 04:46:36;;;;;;;8.80;7.97;;;10.40;99.90;;;;;;5031000;28;20268;-74
2021/10/28 04:49:03;;;;;;;8.50;7.90;;;10.40;99.90;;;;;;5030782;28;20693;-74
2021/10/28 04:51:29;;;;;;;9.50;8.63;;;10.40;99.90;;;;;;5030923;28;20240;-74
2021/10/28 04:53:56;;;;;;;9.10;8.40;;;10.40;99.90;;;;;;5031005;28;20247;-74
2021/10/28 04:56:23;;;;;;;8.47;7.80;;;10.30;99.90;;;;;;5030879;28;20239;-74
2021/10/28 04:58:51;;;;;;;8.97;8.17;;;10.30;99.90;;;;;;5031017;28;20209;-74
2021/10/28 05:01:18;;;;;;;9.13;8.33;;;10.30;99.90;;;;;;5030852;28;20204;-75
2021/10/28 05:03:45;;;;;;;9.10;8.40;;;10.30;99.90;;;;;;5030576;28;20228;-74
2021/10/28 05:06:12;;;;;;;8.60;7.87;;;10.40;99.90;;;;;;5030606;28;20243;-74
2021/10/28 05:08:42;;;;;;;9.03;8.33;;;10.30;99.90;;;;;;5030054;28;20240;-74
2021/10/28 05:11:08;;;;;;;8.13;7.53;;;10.30;99.90;;;;;;5030574;28;20231;-74
2021/10/28 05:13:35;;;;;;;8.93;8.23;;;10.30;99.90;;;;;;5030594;28;20259;-74
2021/10/28 05:16:04;;;;;;;8.60;7.90;;;10.30;99.90;;;;;;5035602;28;20197;-74
2021/10/28 05:18:39;;;;;;;8.50;7.90;;;10.30;99.90;;;;;;5050238;28;20212;-74
2021/10/28 05:21:06;;;;;;;8.70;7.90;;;10.20;99.90;;;;;;5050373;28;20327;-74
2021/10/28 05:23:32;;;;;;;8.70;8.00;;;10.20;99.90;;;;;;5049940;28;20204;-74
2021/10/28 05:25:59;;;;;;;9.17;8.37;;;10.20;99.90;;;;;;5050342;28;20273;-74
2021/10/28 05:28:25;;;;;;;9.37;8.60;;;10.20;99.90;;;;;;5050055;28;20208;-74
2021/10/28 05:30:52;;;;;;;9.20;8.33;;;10.20;99.90;;;;;;5050167;28;20643;-74
2021/10/28 05:33:20;;;;;;;9.03;8.33;;;10.10;99.90;;;;;;5050055;28;20236;-74
2021/10/28 05:35:47;;;;;;;9.57;7.90;;;10.10;99.90;;;;;;5050274;28;20206;-74
2021/10/28 05:38:14;;;;;;;8.60;7.90;;;10.10;99.90;;;;;;5049961;28;20235;-74
2021/10/28 05:40:41;;;;;;;9.53;8.63;;;10.00;99.90;;;;;;5050122;28;20616;-74
2021/10/28 05:43:09;;;;;;;8.70;7.90;;;10.10;99.90;;;;;;5050110;28;20214;-74
2021/10/28 05:45:35;;;;;;;8.53;7.93;;;10.10;99.90;;;;;;5049685;28;20235;-74
2021/10/28 05:48:02;;;;;;;8.53;7.90;;;10.10;99.90;;;;;;5049461;28;20303;-75
2021/10/28 05:50:31;;;;;;;9.07;8.33;;;10.10;99.90;;;;;;5049607;28;20258;-73
2021/10/28 05:53:00;;;;;;;8.13;7.53;;;10.10;99.90;;;;;;5049438;28;20712;-74
2021/10/28 05:55:27;;;;;;;8.67;7.87;;;10.10;99.90;;;;;;5049907;28;20204;-74
2021/10/28 05:57:54;;;;;;;8.90;8.20;;;10.10;99.90;;;;;;5049816;28;20270;-74
2021/10/28 06:00:23;;;;;;;8.40;7.63;;;10.10;99.90;;;;;;5049250;28;20277;-74
2021/10/28 06:02:50;;;;;;;9.20;8.40;;;10.10;99.90;;;;;;5049604;28;20841;-74
2021/10/28 06:05:16;;;;;;;8.57;7.83;;;10.10;99.90;;;;;;5049418;28;20420;-74
2021/10/28 06:07:45;;;;;;;9.10;8.40;;;10.10;99.90;;;;;;5049682;28;20208;-74
2021/10/28 06:10:15;;;;;;;8.97;8.27;;;10.00;99.90;;;;;;5049415;28;20265;-74
2021/10/28 06:12:44;;;;;;;8.67;7.87;;;10.00;99.90;;;;;;5049135;28;20240;-74
2021/10/28 06:15:12;;;;;;;8.93;8.23;;;10.00;99.90;;;;;;5049295;28;20644;-74
2021/10/28 06:17:45;;;;;;;8.93;8.23;;;10.00;99.90;;;;;;5049162;28;20307;-74
2021/10/28 06:20:12;;;;;;;9.57;8.70;;;10.00;99.90;;;;;;5048996;28;20205;-74
2021/10/28 06:22:39;;;;;;;8.87;8.13;;;10.00;99.90;;;;;;5049253;28;20215;-74
2021/10/28 06:25:08;;;;;;;9.53;8.83;;;9.90;99.90;;;;;;5049190;28;20219;-74
2021/10/28 06:27:35;;;;;;;9.53;8.73;;;9.90;99.90;;;;;;5048729;28;20208;-75
2021/10/28 06:30:02;;;;;;;8.97;8.27;;;9.90;99.90;;;;;;5048394;28;20261;-74
2021/10/28 06:32:28;;;;;;;10.13;9.23;;;9.90;99.90;;;;;;5048825;28;20208;-74
2021/10/28 06:34:55;;;;;;;10.37;9.40;;;9.90;99.90;;;;;;5047711;28;20717;-74
2021/10/28 06:37:22;;;;;;;9.20;8.43;;;9.90;99.90;;;;;;5048548;28;20385;-74
2021/10/28 06:39:48;;;;;;;9.40;8.60;;;9.90;99.90;;;;;;5048886;28;20204;-74
2021/10/28 06:42:16;;;;;;;9.30;8.50;;;9.90;99.90;;;;;;5048618;28;20204;-74
2021/10/28 06:44:44;;;;;;;10.53;9.63;;;9.90;99.90;;;;;;5048783;28;20212;-74
2021/10/28 06:47:11;;;;;;;10.00;9.00;;;9.80;99.90;;;;;;5048713;28;20216;-74
2021/10/28 06:49:40;;;;;;;10.73;9.33;;;9.80;99.90;;;;;;5048622;28;20569;-74
2021/10/28 06:52:09;;;;;;;9.87;9.07;;;9.80;99.90;;;;;;5048571;28;20587;-74
2021/10/28 06:54:37;;;;;;;9.47;8.67;;;9.90;99.90;;;;;;5048559;28;20250;-73
2021/10/28 07:02:35;;;;;;;10.47;9.53;;;9.90;99.90;;;;;;5048005;28;20301;-74
2021/10/28 07:05:03;;;;;;;10.33;9.40;;;9.90;99.90;;;;;;5048397;28;20211;-74
2021/10/28 07:07:32;;;;;;;10.60;9.60;;;9.90;99.90;;;;;;5048290;28;20222;-74
2021/10/28 07:10:02;;;;;;;9.30;8.57;;;9.90;99.90;;;;;;5048556;28;20214;-74
2021/10/28 07:12:40;;;;;;;9.70;8.80;;;9.90;99.90;;;;;;5048259;28;20188;-74
2021/10/28 07:15:15;;;;;;;9.47;8.67;;;10.00;99.90;;;;;;5048504;28;20219;-74
2021/10/28 07:17:51;;;;;;;9.33;8.53;;;10.00;99.90;;;;;;5048351;28;20570;-74
2021/10/28 07:20:37;;;;;;;10.30;9.40;;;10.10;99.90;;;;;;5048104;28;20238;-74
2021/10/28 07:26:15;;;;;;;8.83;8.03;;;10.20;99.90;;;;;;5048129;28;20219;-74
2021/10/28 07:28:59;;;;;;;9.50;8.67;;;10.30;99.90;;;;;;5047816;28;20236;-74
2021/10/28 07:31:54;;;;;;;9.93;9.03;;;10.30;99.90;;;;;;5048041;28;20204;-74
2021/10/28 07:59:32;;;;;;;8.97;8.27;;;11.10;99.90;;;;;;5051780;28;20235;-74
2021/10/28 08:04:58;;;;;;;10.20;9.30;;;11.30;99.90;;;;;;5051645;28;20195;-73
2021/10/28 08:15:48;;;;;;;9.00;8.30;;;11.60;99.90;;;;;;5051295;28;20203;-74
2021/10/28 08:18:28;;;;;;;9.57;8.77;;;11.60;99.90;;;;;;5051812;28;20231;-74
2021/10/28 08:21:14;;;;;;;9.50;8.70;;;11.70;99.90;;;;;;5051460;28;20228;-74
2021/10/28 08:23:45;;;;;;;10.03;9.23;;;11.80;99.90;;;;;;5051642;28;20200;-74
2021/10/28 08:28:59;;;;;;;9.43;8.53;;;11.90;99.90;;;;;;5051028;28;20243;-74
2021/10/28 08:31:27;;;;;;;9.20;8.43;;;12.00;99.90;;;;;;5051060;28;20265;-74
2021/10/28 08:33:53;;;;;;;9.87;9.03;;;12.10;99.90;;;;;;5051116;28;20236;-74
2021/10/28 08:36:25;;;;;;;9.40;8.70;;;12.10;99.90;;;;;;5051185;28;20234;-74
2021/10/28 08:38:52;;;;;;;9.33;8.53;;;12.10;99.90;;;;;;5051335;28;20250;-74
2021/10/28 08:41:21;;;;;;;9.77;7.97;;;12.20;99.90;;;;;;5051120;28;20212;-73
2021/10/28 08:43:48;;;;;;;9.03;8.27;;;12.30;99.90;;;;;;5051060;28;20375;-74
2021/10/28 08:46:15;;;;;;;8.63;7.90;;;12.40;99.90;;;;;;5050936;28;20208;-74
2021/10/28 08:48:48;;;;;;;9.03;8.13;;;12.50;99.90;;;;;;5050915;28;20219;-73
2021/10/28 08:51:18;;;;;;;9.13;8.33;;;12.50;99.90;;;;;;5051094;28;20188;-75
2021/10/28 08:53:59;;;;;;;8.97;8.27;;;12.60;99.90;;;;;;5050833;28;20238;-74
2021/10/28 08:56:57;;;;;;;8.80;8.00;;;12.60;99.90;;;;;;5050533;28;20200;-73
2021/10/28 08:59:44;;;;;;;8.07;7.37;;;12.70;99.90;;;;;;5050318;28;20721;-73
2021/10/28 09:24:36;;;;;;;7.73;7.10;;;13.40;99.90;;;;;;5050097;28;20657;-74
2021/10/28 09:27:09;;;;;;;7.10;6.60;;;13.50;99.90;;;;;;5050519;28;20204;-75
2021/10/28 09:29:42;;;;;;;7.13;6.57;;;13.60;99.90;;;;;;5049706;28;20741;-74
2021/10/28 09:32:18;;;;;;;6.93;6.40;;;13.70;99.90;;;;;;5050184;28;20193;-74
2021/10/28 09:46:31;;;;;;;6.20;5.70;;;14.00;99.90;;;;;;5049829;28;20200;-74
2021/10/28 09:51:58;;;;;;;7.47;5.27;;;14.20;99.90;;;;;;5049887;28;20276;-74
2021/10/28 09:54:40;;;;;;;6.43;5.87;;;14.30;99.90;;;;;;5049578;28;20220;-74
2021/10/28 09:59:55;;;;;;;6.53;6.00;;;14.40;99.90;;;;;;5049609;28;20196;-74
2021/10/28 10:02:32;;;;;;;6.37;5.67;;;14.50;99.90;;;;;;5049387;28;20231;-74
2021/10/28 10:05:00;;;;;;;5.73;5.33;;;14.60;99.90;;;;;;5049497;28;20196;-74
2021/10/28 10:07:27;;;;;;;6.07;5.47;;;14.70;99.90;;;;;;5048969;28;20697;-74
2021/10/28 10:09:55;;;;;;;6.50;5.93;;;14.70;99.90;;;;;;5048350;28;20208;-74
2021/10/28 10:12:22;;;;;;;5.77;5.33;;;14.80;99.90;;;;;;5049402;28;20219;-73
2021/10/28 10:14:48;;;;;;;5.90;5.40;;;14.90;99.90;;;;;;5049210;28;20228;-74
2021/10/28 10:17:17;;;;;;;6.43;5.93;;;14.90;99.90;;;;;;5049501;28;20254;-74
2021/10/28 10:19:47;;;;;;;5.80;5.30;;;15.00;99.90;;;;;;5049010;28;20227;-73
2021/10/28 10:22:32;;;;;;;6.10;5.57;;;15.10;99.90;;;;;;5048982;28;20662;-74
2021/10/28 10:25:08;;;;;;;6.93;5.23;;;15.10;99.90;;;;;;5048972;28;20600;-74
2021/10/28 10:28:37;;;;;;;7.17;5.73;;;15.20;99.90;;;;;;5049124;28;20192;-74
2021/10/28 11:33:14;;;;;;;6.20;5.80;;;17.30;99.90;;;;;;5030171;28;20696;-74
2021/10/28 12:01:38;;;;;;;6.70;6.10;;;17.50;99.90;;;;;;5047645;28;20198;-74
2021/10/28 12:21:30;;;;;;;5.20;4.80;;;18.80;99.90;;;;;;5047575;28;20222;-74
2021/10/28 12:24:30;;;;;;;4.70;4.40;;;18.90;99.90;;;;;;5047666;28;20199;-74
2021/10/28 12:44:12;;;;;;;5.73;4.20;;;19.20;99.90;;;;;;5050847;28;20192;-73
2021/10/28 12:47:12;;;;;;;5.30;4.17;;;19.20;99.90;;;;;;5051157;28;20197;-73
2021/10/28 12:49:56;;;;;;;4.57;3.73;;;19.10;99.90;;;;;;5050687;28;20242;-73
2021/10/28 12:52:37;;;;;;;4.83;4.43;;;19.20;99.90;;;;;;5050692;28;20249;-74
2021/10/28 12:55:34;;;;;;;6.07;3.90;;;19.30;99.90;;;;;;5050831;28;20223;-73
2021/10/28 13:03:51;;;;;;;3.93;3.63;;;19.60;99.90;;;;;;5050753;28;20276;-73
2021/10/28 13:34:52;;;;;;;3.40;2.90;;;20.00;99.90;;;;;;5049864;28;20662;-73
2021/10/28 13:50:39;;;;;;;3.23;2.93;;;20.10;99.90;;;;;;5026014;28;20200;-73
2021/10/28 14:21:21;;;;;;;3.40;3.10;;;20.20;99.90;;;;;;5026564;28;20204;-73
2021/10/28 14:27:01;;;;;;;3.30;3.10;;;20.10;99.90;;;;;;5025864;28;20216;-73
2021/10/28 15:30:13;;;;;;;7.03;4.33;;;17.50;99.90;;;;;;5052042;27;20404;-73
2021/10/28 15:35:35;;;;;;;4.77;4.30;;;17.40;99.90;;;;;;5038788;27;20595;-72
2021/10/28 15:38:12;;;;;;;7.00;4.50;;;17.40;99.90;;;;;;5048738;27;20737;-72
2021/10/28 15:40:52;;;;;;;5.83;5.33;;;17.30;99.90;;;;;;5032230;28;20193;-72
2021/10/28 15:43:45;;;;;;;7.07;5.23;;;17.20;99.90;;;;;;5038026;28;20248;-72
2021/10/28 15:57:20;;;;;;;4.67;4.10;;;16.80;99.90;;;;;;5011428;28;20245;-72
2021/10/28 15:59:57;;;;;;;4.60;4.20;;;16.70;99.90;;;;;;5020997;28;20224;-72
2021/10/28 16:21:52;;;;;;;5.90;5.47;;;16.10;99.90;;;;;;5021006;28;20265;-72
2021/10/28 16:24:19;;;;;;;6.17;5.57;;;16.10;99.90;;;;;;5019725;28;20218;-72
2021/10/28 16:26:46;;;;;;;6.10;5.50;;;16.10;99.90;;;;;;5009286;28;20201;-72
2021/10/28 16:29:13;;;;;;;6.10;5.50;;;16.10;99.90;;;;;;5015716;28;20247;-72
2021/10/28 16:31:42;;;;;;;7.60;5.77;;;16.00;99.90;;;;;;5011337;28;20217;-72
2021/10/28 16:34:10;;;;;;;7.20;5.73;;;16.00;99.90;;;;;;5017461;28;20217;-72
2021/10/28 16:36:37;;;;;;;6.50;5.93;;;16.00;99.90;;;;;;5019074;28;20747;-72
2021/10/28 16:39:08;;;;;;;6.73;6.13;;;16.00;99.90;;;;;;5017564;28;20687;-72
2021/10/28 16:41:36;;;;;;;6.00;5.50;;;16.00;99.90;;;;;;5023051;28;20197;-72
2021/10/28 16:44:03;;;;;;;7.60;6.50;;;16.00;99.90;;;;;;5012304;28;20198;-72
2021/10/28 16:46:30;;;;;;;6.80;6.10;;;15.90;99.90;;;;;;5017385;28;20251;-72
2021/10/28 16:48:58;;;;;;;6.40;5.90;;;15.90;99.90;;;;;;5014666;28;20287;-72
2021/10/28 16:51:25;;;;;;;10.57;6.20;;;15.80;99.90;;;;;;5019734;28;20212;-72
2021/10/28 16:53:52;;;;;;;6.90;6.30;;;15.90;99.90;;;;;;5038857;27;20198;-73
2021/10/28 16:56:19;;;;;;;6.70;6.10;;;15.90;99.90;;;;;;5024845;28;20702;-72
2021/10/28 16:58:46;;;;;;;9.80;6.53;;;15.90;99.90;;;;;;5014859;28;20274;-72
2021/10/28 17:01:13;;;;;;;6.10;5.60;;;15.80;99.90;;;;;;5047212;27;20682;-72
2021/10/28 17:03:40;;;;;;;7.87;5.90;;;15.80;99.90;;;;;;5017804;28;20733;-72
2021/10/28 17:06:11;;;;;;;7.13;6.53;;;15.80;99.90;;;;;;5026402;28;20262;-72
2021/10/28 17:08:38;;;;;;;7.40;6.60;;;15.80;99.90;;;;;;5026323;28;20274;-71
2021/10/28 17:11:06;;;;;;;7.13;6.10;;;15.80;99.90;;;;;;5026507;28;20208;-71
2021/10/28 17:13:33;;;;;;;7.87;6.90;;;15.70;99.90;;;;;;5026248;28;20634;-72
2021/10/28 17:15:59;;;;;;;7.17;6.47;;;15.70;99.90;;;;;;5026237;28;20265;-73
2021/10/28 17:18:26;;;;;;;6.90;6.20;;;15.60;99.90;;;;;;5056044;27;20718;-72
2021/10/28 17:20:55;;;;;;;7.03;6.33;;;15.60;99.90;;;;;;5054542;27;20202;-72
2021/10/28 17:23:31;;;;;;;6.93;6.27;;;15.60;99.90;;;;;;5013822;28;20289;-73
2021/10/28 17:25:59;;;;;;;8.57;7.03;;;15.60;99.90;;;;;;5019561;28;20204;-72
2021/10/28 17:28:26;;;;;;;7.70;7.07;;;15.50;99.90;;;;;;5014024;28;20271;-72
2021/10/28 17:30:53;;;;;;;7.30;6.70;;;15.40;99.90;;;;;;5014862;28;20198;-72
2021/10/28 17:33:20;;;;;;;7.20;6.63;;;15.40;99.90;;;;;;5018998;28;20201;-72
2021/10/28 17:35:47;;;;;;;7.27;6.50;;;15.40;99.90;;;;;;5014715;28;20319;-72
2021/10/28 17:38:13;;;;;;;7.90;6.97;;;15.40;99.90;;;;;;5019218;28;20217;-72
2021/10/28 17:40:41;;;;;;;7.30;6.70;;;15.40;99.90;;;;;;5009541;28;20201;-72
2021/10/28 17:43:11;;;;;;;7.67;6.97;;;15.30;99.90;;;;;;5018331;28;20289;-72
2021/10/28 17:45:39;;;;;;;7.93;6.90;;;15.30;99.90;;;;;;5020787;28;20204;-73
2021/10/28 17:48:07;;;;;;;6.77;6.17;;;15.30;99.90;;;;;;5021600;28;20212;-72
2021/10/28 17:50:34;;;;;;;7.00;6.07;;;15.20;99.90;;;;;;5020514;28;20197;-72
2021/10/28 17:53:01;;;;;;;6.23;5.63;;;15.20;99.90;;;;;;5022930;28;20223;-72
2021/10/28 17:55:28;;;;;;;6.60;5.93;;;15.10;99.90;;;;;;5022959;28;20220;-73
2021/10/28 17:57:57;;;;;;;6.77;5.90;;;15.10;99.90;;;;;;5022663;28;20257;-72
2021/10/28 18:00:24;;;;;;;6.50;5.80;;;15.10;99.90;;;;;;5022424;28;20232;-72
2021/10/28 18:02:54;;;;;;;6.73;6.13;;;15.10;99.90;;;;;;5022077;28;20261;-72
2021/10/28 18:05:21;;;;;;;6.63;5.93;;;15.10;99.90;;;;;;5014853;28;20284;-72
2021/10/28 18:07:48;;;;;;;7.53;5.93;;;15.00;99.90;;;;;;5022251;28;20232;-72
2021/10/28 18:10:16;;;;;;;7.20;5.70;;;14.90;99.90;;;;;;5021328;28;20212;-72
2021/10/28 18:12:43;;;;;;;6.03;5.53;;;14.90;99.90;;;;;;5014916;28;20237;-73
2021/10/28 18:15:12;;;;;;;6.97;5.87;;;14.90;99.90;;;;;;5010275;28;20201;-73
2021/10/28 18:17:39;;;;;;;6.90;6.30;;;14.90;99.90;;;;;;5015918;28;20698;-73
2021/10/28 18:20:07;;;;;;;7.77;6.43;;;14.80;99.90;;;;;;5013423;28;20213;-73
2021/10/28 18:22:37;;;;;;;7.63;6.93;;;14.80;99.90;;;;;;5017153;28;20201;-73
2021/10/28 18:25:04;;;;;;;7.93;6.47;;;14.80;99.90;;;;;;5015024;28;20194;-73
2021/10/28 18:27:32;;;;;;;6.47;5.97;;;14.70;99.90;;;;;;5013267;28;20213;-73
2021/10/28 18:29:59;;;;;;;7.13;6.20;;;14.70;99.90;;;;;;5015109;28;20296;-73
2021/10/28 18:32:27;;;;;;;7.27;6.60;;;14.70;99.90;;;;;;5011864;28;20213;-73
2021/10/28 18:34:54;;;;;;;7.23;6.60;;;14.70;99.90;;;;;;5017354;28;20225;-73
2021/10/28 18:37:21;;;;;;;6.70;6.20;;;14.70;99.90;;;;;;5021926;28;20308;-73
2021/10/28 18:39:50;;;;;;;6.23;5.73;;;14.60;99.90;;;;;;5022361;28;20220;-73
2021/10/28 18:42:17;;;;;;;6.33;5.83;;;14.60;99.90;;;;;;5021986;28;20213;-73
2021/10/28 18:44:44;;;;;;;7.20;6.23;;;14.60;99.90;;;;;;5020277;28;20204;-73
2021/10/28 18:47:10;;;;;;;6.57;5.93;;;14.60;99.90;;;;;;5030610;28;20201;-73
2021/10/28 18:49:39;;;;;;;7.83;6.20;;;14.60;99.90;;;;;;5021292;28;20694;-72
2021/10/28 18:52:06;;;;;;;6.70;6.13;;;14.50;99.90;;;;;;5021850;28;20301;-73
2021/10/28 18:54:32;;;;;;;7.63;6.93;;;14.50;99.90;;;;;;5021850;28;20212;-73
2021/10/28 18:56:59;;;;;;;10.17;7.60;;;14.50;99.90;;;;;;5018883;28;20228;-72
2021/10/28 18:59:26;;;;;;;7.37;6.70;;;14.50;99.90;;;;;;5016984;28;20222;-73
2021/10/28 19:01:55;;;;;;;7.60;6.80;;;14.40;99.90;;;;;;5060687;27;20876;-73
2021/10/28 19:04:23;;;;;;;7.57;6.83;;;14.40;99.90;;;;;;5013346;28;20235;-73
2021/10/28 19:06:51;;;;;;;7.70;6.53;;;14.30;99.90;;;;;;5009778;28;20296;-73
2021/10/28 19:09:18;;;;;;;7.90;6.90;;;14.30;99.90;;;;;;5001717;28;20213;-73
2021/10/28 19:11:45;;;;;;;8.43;7.63;;;14.30;99.90;;;;;;5002202;28;20263;-73
2021/10/28 19:14:13;;;;;;;7.67;6.97;;;14.20;99.90;;;;;;5002081;28;20245;-73
2021/10/28 19:16:39;;;;;;;7.67;6.80;;;14.20;99.90;;;;;;5001729;28;20314;-73
2021/10/28 19:19:07;;;;;;;8.37;7.50;;;14.20;99.90;;;;;;5001785;28;20217;-73
2021/10/28 19:21:34;;;;;;;7.83;6.80;;;14.20;99.90;;;;;;5001704;28;20213;-73
2021/10/28 19:24:02;;;;;;;7.37;6.67;;;14.20;99.90;;;;;;5003816;28;20708;-73
2021/10/28 19:26:29;;;;;;;8.27;7.17;;;14.10;99.90;;;;;;5004898;28;20551;-73
2021/10/28 19:28:57;;;;;;;7.53;6.80;;;14.20;99.90;;;;;;5005346;28;20248;-73
2021/10/28 19:31:26;;;;;;;7.70;7.00;;;14.10;99.90;;;;;;5004789;28;20218;-74
2021/10/28 19:33:54;;;;;;;7.87;7.07;;;14.10;99.90;;;;;;5011556;28;20635;-74
2021/10/28 19:36:29;;;;;;;8.60;7.70;;;14.10;99.90;;;;;;5023757;28;20236;-74
2021/10/28 19:39:16;;;;;;;9.53;7.90;;;14.10;99.90;;;;;;5024745;28;20294;-74
2021/10/28 19:41:56;;;;;;;9.60;7.37;;;14.10;99.90;;;;;;5044432;27;20201;-73
2021/10/28 19:47:12;;;;;;;8.30;7.10;;;14.00;99.90;;;;;;5018768;28;20250;-74
2021/10/28 19:49:39;;;;;;;7.50;6.80;;;13.90;99.90;;;;;;5017996;28;20301;-74
2021/10/28 19:52:07;;;;;;;7.57;6.90;;;13.90;99.90;;;;;;5017953;28;20620;-74
2021/10/28 19:54:39;;;;;;;7.40;6.80;;;13.80;99.90;;;;;;5019178;28;20209;-73
2021/10/28 19:57:13;;;;;;;8.17;7.47;;;13.80;99.90;;;;;;5020381;27;20236;-73
2021/10/28 19:59:45;;;;;;;7.93;7.23;;;13.80;99.90;;;;;;5016059;28;20198;-73
2021/10/28 20:02:19;;;;;;;9.17;7.20;;;13.80;99.90;;;;;;5022305;28;20185;-76
2021/10/28 20:05:08;;;;;;;7.80;7.13;;;13.80;99.90;;;;;;5027575;28;20205;-74
2021/10/28 20:07:58;;;;;;;8.27;7.50;;;13.70;99.90;;;;;;5027174;28;20193;-75
2021/10/28 20:13:25;;;;;;;8.73;7.93;;;13.70;99.90;;;;;;5026642;28;20283;-76
2021/10/28 20:21:36;;;;;;;8.27;7.47;;;13.60;99.90;;;;;;5006762;28;20201;-73
2021/10/28 20:24:12;;;;;;;9.13;8.13;;;13.50;99.90;;;;;;5007281;28;20212;-73
2021/10/28 20:26:42;;;;;;;8.73;7.93;;;13.50;99.90;;;;;;5007008;28;20194;-74
2021/10/28 20:29:10;;;;;;;8.63;7.93;;;13.50;99.90;;;;;;5007122;28;20244;-74
2021/10/28 20:31:36;;;;;;;8.37;7.57;;;13.40;99.90;;;;;;5007095;28;20610;-74
2021/10/28 20:34:12;;;;;;;8.83;7.93;;;13.40;99.90;;;;;;5006940;28;20382;-75
2021/10/28 20:39:25;;;;;;;8.37;7.67;;;13.30;99.90;;;;;;5006803;28;20573;-73
2021/10/28 20:41:51;;;;;;;8.90;8.00;;;13.30;99.90;;;;;;5006185;28;20217;-73